sensor_id;sensor_type;location;lat;lon;timestamp;P1;durP1;ratioP1;P2;durP2;ratioP2
68473;SDS011;55461;52.066;5.194;2022-08-21T00:01:27;12.9;;;8.31;;
68473;SDS011;55461;52.066;5.194;2022-08-21T00:03:06;12.4;;;8.1;;
68473;SDS011;55461;52.066;5.194;2022-08-21T00:06:23;11.6;;;8.0;;
68473;SDS011;55461;52.066;5.194;2022-08-21T00:08:02;12.9;;;8.0;;
68473;SDS011;55461;52.066;5.194;2022-08-21T00:11:16;10.6;;;7.6;;
68473;SDS011;55461;52.066;5.194;2022-08-21T00:14:31;12.4;;;7.8;;
68473;SDS011;55461;52.066;5.194;2022-08-21T00:16:09;11.3;;;7.9;;
68473;SDS011;55461;52.066;5.194;2022-08-21T00:17:46;12.9;;;7.8;;
68473;SDS011;55461;52.066;5.194;2022-08-21T00:21:02;11.9;;;7.8;;
68473;SDS011;55461;52.066;5.194;2022-08-21T00:22:39;13.2;;;8.0;;
68473;SDS011;55461;52.066;5.194;2022-08-21T00:24:17;12.3;;;7.7;;
68473;SDS011;55461;52.066;5.194;2022-08-21T00:25:54;11.9;;;7.9;;
68473;SDS011;55461;52.066;5.194;2022-08-21T00:29:07;12.5;;;8.2;;
68473;SDS011;55461;52.066;5.194;2022-08-21T00:30:43;11.2;;;8.31;;
68473;SDS011;55461;52.066;5.194;2022-08-21T00:32:21;13.2;;;7.9;;
68473;SDS011;55461;52.066;5.194;2022-08-21T00:35:38;12.5;;;8.0;;
68473;SDS011;55461;52.066;5.194;2022-08-21T00:37:17;12.1;;;8.4;;
68473;SDS011;55461;52.066;5.194;2022-08-21T00:38:54;11.9;;;8.4;;
68473;SDS011;55461;52.066;5.194;2022-08-21T00:40:32;12.8;;;8.0;;
68473;SDS011;55461;52.066;5.194;2022-08-21T00:43:53;14.5;;;9.0;;
68473;SDS011;55461;52.066;5.194;2022-08-21T00:45:31;11.9;;;8.31;;
68473;SDS011;55461;52.066;5.194;2022-08-21T00:47:09;12.2;;;8.4;;
68473;SDS011;55461;52.066;5.194;2022-08-21T00:48:46;12.0;;;7.9;;
68473;SDS011;55461;52.066;5.194;2022-08-21T00:52:05;14.5;;;8.81;;
68473;SDS011;55461;52.066;5.194;2022-08-21T00:53:46;12.6;;;8.4;;
68473;SDS011;55461;52.066;5.194;2022-08-21T00:55:23;12.1;;;8.71;;
68473;SDS011;55461;52.066;5.194;2022-08-21T00:58:46;13.5;;;9.0;;
68473;SDS011;55461;52.066;5.194;2022-08-21T01:00:25;13.6;;;8.81;;
68473;SDS011;55461;52.066;5.194;2022-08-21T01:02:06;12.6;;;8.5;;
68473;SDS011;55461;52.066;5.194;2022-08-21T01:03:45;13.9;;;9.0;;
68473;SDS011;55461;52.066;5.194;2022-08-21T01:07:00;12.5;;;9.0;;
68473;SDS011;55461;52.066;5.194;2022-08-21T01:08:37;15.5;;;9.31;;
68473;SDS011;55461;52.066;5.194;2022-08-21T01:10:15;13.5;;;9.21;;
68473;SDS011;55461;52.066;5.194;2022-08-21T01:11:52;13.3;;;9.0;;
68473;SDS011;55461;52.066;5.194;2022-08-21T01:15:10;14.2;;;9.4;;
68473;SDS011;55461;52.066;5.194;2022-08-21T01:16:51;13.9;;;9.31;;
68473;SDS011;55461;52.066;5.194;2022-08-21T01:18:30;15.0;;;9.5;;
68473;SDS011;55461;52.066;5.194;2022-08-21T01:20:08;13.0;;;9.4;;
68473;SDS011;55461;52.066;5.194;2022-08-21T01:23:25;14.0;;;9.9;;
68473;SDS011;55461;52.066;5.194;2022-08-21T01:25:02;13.4;;;9.21;;
68473;SDS011;55461;52.066;5.194;2022-08-21T01:26:41;16.2;;;10.21;;
68473;SDS011;55461;52.066;5.194;2022-08-21T01:29:59;15.0;;;9.81;;
68473;SDS011;55461;52.066;5.194;2022-08-21T01:31:44;13.6;;;9.21;;
68473;SDS011;55461;52.066;5.194;2022-08-21T01:33:24;12.8;;;9.1;;
68473;SDS011;55461;52.066;5.194;2022-08-21T01:35:01;13.9;;;9.9;;
68473;SDS011;55461;52.066;5.194;2022-08-21T01:38:16;13.7;;;9.6;;
68473;SDS011;55461;52.066;5.194;2022-08-21T01:39:53;17.2;;;10.1;;
68473;SDS011;55461;52.066;5.194;2022-08-21T01:41:29;15.4;;;10.3;;
68473;SDS011;55461;52.066;5.194;2022-08-21T01:44:43;12.7;;;9.5;;
68473;SDS011;55461;52.066;5.194;2022-08-21T01:46:20;15.2;;;9.71;;
68473;SDS011;55461;52.066;5.194;2022-08-21T01:47:56;16.11;;;9.71;;
68473;SDS011;55461;52.066;5.194;2022-08-21T01:49:32;16.2;;;9.31;;
68473;SDS011;55461;52.066;5.194;2022-08-21T01:52:48;14.8;;;10.21;;
68473;SDS011;55461;52.066;5.194;2022-08-21T01:54:25;14.9;;;9.9;;
68473;SDS011;55461;52.066;5.194;2022-08-21T01:56:03;14.0;;;9.5;;
68473;SDS011;55461;52.066;5.194;2022-08-21T01:59:19;15.7;;;9.9;;
68473;SDS011;55461;52.066;5.194;2022-08-21T02:00:58;13.8;;;9.31;;
68473;SDS011;55461;52.066;5.194;2022-08-21T02:02:35;13.9;;;10.0;;
68473;SDS011;55461;52.066;5.194;2022-08-21T02:04:11;13.3;;;9.81;;
68473;SDS011;55461;52.066;5.194;2022-08-21T02:07:24;13.7;;;9.6;;
68473;SDS011;55461;52.066;5.194;2022-08-21T02:09:01;15.5;;;10.21;;
68473;SDS011;55461;52.066;5.194;2022-08-21T02:10:41;13.2;;;9.81;;
68473;SDS011;55461;52.066;5.194;2022-08-21T02:13:54;14.1;;;9.81;;
68473;SDS011;55461;52.066;5.194;2022-08-21T02:15:31;14.7;;;9.9;;
68473;SDS011;55461;52.066;5.194;2022-08-21T02:17:07;16.3;;;10.4;;
68473;SDS011;55461;52.066;5.194;2022-08-21T02:18:43;14.7;;;9.9;;
68473;SDS011;55461;52.066;5.194;2022-08-21T02:22:03;15.3;;;10.1;;
68473;SDS011;55461;52.066;5.194;2022-08-21T02:23:40;14.1;;;10.21;;
68473;SDS011;55461;52.066;5.194;2022-08-21T02:25:16;15.6;;;10.5;;
68473;SDS011;55461;52.066;5.194;2022-08-21T02:28:30;16.11;;;10.0;;
68473;SDS011;55461;52.066;5.194;2022-08-21T02:30:09;13.1;;;9.5;;
68473;SDS011;55461;52.066;5.194;2022-08-21T02:31:47;14.5;;;9.81;;
68473;SDS011;55461;52.066;5.194;2022-08-21T02:33:24;12.9;;;9.6;;
68473;SDS011;55461;52.066;5.194;2022-08-21T02:36:39;12.7;;;9.71;;
68473;SDS011;55461;52.066;5.194;2022-08-21T02:38:18;12.1;;;9.4;;
68473;SDS011;55461;52.066;5.194;2022-08-21T02:39:59;12.8;;;9.4;;
68473;SDS011;55461;52.066;5.194;2022-08-21T02:43:12;15.3;;;10.21;;
68473;SDS011;55461;52.066;5.194;2022-08-21T02:44:51;13.9;;;9.71;;
68473;SDS011;55461;52.066;5.194;2022-08-21T02:46:28;15.0;;;10.6;;
68473;SDS011;55461;52.066;5.194;2022-08-21T02:48:04;13.5;;;9.9;;
68473;SDS011;55461;52.066;5.194;2022-08-21T02:51:22;15.5;;;10.4;;
68473;SDS011;55461;52.066;5.194;2022-08-21T02:52:59;15.0;;;10.1;;
68473;SDS011;55461;52.066;5.194;2022-08-21T02:54:36;15.9;;;10.0;;
68473;SDS011;55461;52.066;5.194;2022-08-21T02:57:55;14.5;;;9.71;;
68473;SDS011;55461;52.066;5.194;2022-08-21T02:59:34;14.5;;;9.71;;
68473;SDS011;55461;52.066;5.194;2022-08-21T03:01:11;14.2;;;10.5;;
68473;SDS011;55461;52.066;5.194;2022-08-21T03:02:49;13.7;;;9.81;;
68473;SDS011;55461;52.066;5.194;2022-08-21T03:06:03;14.5;;;9.9;;
68473;SDS011;55461;52.066;5.194;2022-08-21T03:07:41;14.9;;;10.3;;
68473;SDS011;55461;52.066;5.194;2022-08-21T03:09:19;13.0;;;9.81;;
68473;SDS011;55461;52.066;5.194;2022-08-21T03:12:32;14.3;;;9.9;;
68473;SDS011;55461;52.066;5.194;2022-08-21T03:14:09;16.2;;;10.6;;
68473;SDS011;55461;52.066;5.194;2022-08-21T03:15:46;17.8;;;10.4;;
68473;SDS011;55461;52.066;5.194;2022-08-21T03:17:23;13.4;;;9.71;;
68473;SDS011;55461;52.066;5.194;2022-08-21T03:20:38;13.8;;;10.1;;
68473;SDS011;55461;52.066;5.194;2022-08-21T03:22:17;15.7;;;10.3;;
68473;SDS011;55461;52.066;5.194;2022-08-21T03:23:54;15.5;;;10.21;;
68473;SDS011;55461;52.066;5.194;2022-08-21T03:27:12;15.0;;;10.3;;
68473;SDS011;55461;52.066;5.194;2022-08-21T03:28:50;14.6;;;10.5;;
68473;SDS011;55461;52.066;5.194;2022-08-21T03:30:27;14.5;;;10.5;;
68473;SDS011;55461;52.066;5.194;2022-08-21T03:32:04;16.5;;;10.6;;
68473;SDS011;55461;52.066;5.194;2022-08-21T03:35:18;14.0;;;10.1;;
68473;SDS011;55461;52.066;5.194;2022-08-21T03:36:56;15.8;;;10.8;;
68473;SDS011;55461;52.066;5.194;2022-08-21T03:38:33;16.2;;;11.2;;
68473;SDS011;55461;52.066;5.194;2022-08-21T03:41:52;14.7;;;10.5;;
68473;SDS011;55461;52.066;5.194;2022-08-21T03:43:29;15.4;;;10.5;;
68473;SDS011;55461;52.066;5.194;2022-08-21T03:45:07;17.3;;;11.0;;
68473;SDS011;55461;52.066;5.194;2022-08-21T03:46:45;16.3;;;10.9;;
68473;SDS011;55461;52.066;5.194;2022-08-21T03:49:59;15.3;;;10.6;;
68473;SDS011;55461;52.066;5.194;2022-08-21T03:51:37;17.2;;;10.6;;
68473;SDS011;55461;52.066;5.194;2022-08-21T03:53:14;17.0;;;11.3;;
68473;SDS011;55461;52.066;5.194;2022-08-21T03:56:29;15.0;;;11.4;;
68473;SDS011;55461;52.066;5.194;2022-08-21T03:58:06;16.3;;;11.2;;
68473;SDS011;55461;52.066;5.194;2022-08-21T03:59:43;17.2;;;11.0;;
68473;SDS011;55461;52.066;5.194;2022-08-21T04:01:20;15.5;;;11.4;;
68473;SDS011;55461;52.066;5.194;2022-08-21T04:04:32;16.8;;;11.0;;
68473;SDS011;55461;52.066;5.194;2022-08-21T04:06:10;16.3;;;11.5;;
68473;SDS011;55461;52.066;5.194;2022-08-21T04:07:47;15.6;;;11.4;;
68473;SDS011;55461;52.066;5.194;2022-08-21T04:11:02;18.11;;;11.7;;
68473;SDS011;55461;52.066;5.194;2022-08-21T04:12:39;17.7;;;11.9;;
68473;SDS011;55461;52.066;5.194;2022-08-21T04:14:15;16.9;;;11.2;;
68473;SDS011;55461;52.066;5.194;2022-08-21T04:15:53;16.5;;;11.6;;
68473;SDS011;55461;52.066;5.194;2022-08-21T04:19:07;17.2;;;11.5;;
68473;SDS011;55461;52.066;5.194;2022-08-21T04:20:44;15.7;;;12.0;;
68473;SDS011;55461;52.066;5.194;2022-08-21T04:22:24;18.2;;;11.4;;
68473;SDS011;55461;52.066;5.194;2022-08-21T04:25:36;18.2;;;11.8;;
68473;SDS011;55461;52.066;5.194;2022-08-21T04:27:13;19.5;;;11.6;;
68473;SDS011;55461;52.066;5.194;2022-08-21T04:28:49;18.5;;;11.3;;
68473;SDS011;55461;52.066;5.194;2022-08-21T04:32:03;19.0;;;11.9;;
68473;SDS011;55461;52.066;5.194;2022-08-21T04:33:40;16.61;;;11.3;;
68473;SDS011;55461;52.066;5.194;2022-08-21T04:35:17;17.2;;;12.0;;
68473;SDS011;55461;52.066;5.194;2022-08-21T04:36:56;17.2;;;12.0;;
68473;SDS011;55461;52.066;5.194;2022-08-21T04:40:11;18.11;;;12.1;;
68473;SDS011;55461;52.066;5.194;2022-08-21T04:41:49;15.1;;;11.2;;
68473;SDS011;55461;52.066;5.194;2022-08-21T04:43:25;18.7;;;11.7;;
68473;SDS011;55461;52.066;5.194;2022-08-21T04:46:38;19.0;;;11.7;;
68473;SDS011;55461;52.066;5.194;2022-08-21T04:48:15;15.7;;;11.6;;
68473;SDS011;55461;52.066;5.194;2022-08-21T04:49:55;17.0;;;11.2;;
68473;SDS011;55461;52.066;5.194;2022-08-21T04:51:32;17.8;;;11.4;;
68473;SDS011;55461;52.066;5.194;2022-08-21T04:54:54;18.61;;;11.3;;
68473;SDS011;55461;52.066;5.194;2022-08-21T04:56:33;17.2;;;11.6;;
68473;SDS011;55461;52.066;5.194;2022-08-21T04:58:18;15.1;;;11.0;;
68473;SDS011;55461;52.066;5.194;2022-08-21T04:59:56;16.3;;;11.0;;
68473;SDS011;55461;52.066;5.194;2022-08-21T05:03:14;18.91;;;11.8;;
68473;SDS011;55461;52.066;5.194;2022-08-21T05:04:53;17.2;;;11.4;;
68473;SDS011;55461;52.066;5.194;2022-08-21T05:06:33;17.2;;;11.1;;
68473;SDS011;55461;52.066;5.194;2022-08-21T05:08:14;17.11;;;11.4;;
68473;SDS011;55461;52.066;5.194;2022-08-21T05:11:32;15.6;;;11.2;;
68473;SDS011;55461;52.066;5.194;2022-08-21T05:13:10;16.9;;;11.2;;
68473;SDS011;55461;52.066;5.194;2022-08-21T05:14:48;16.5;;;11.2;;
68473;SDS011;55461;52.066;5.194;2022-08-21T05:18:03;17.3;;;11.0;;
68473;SDS011;55461;52.066;5.194;2022-08-21T05:19:40;19.11;;;11.6;;
68473;SDS011;55461;52.066;5.194;2022-08-21T05:21:16;15.7;;;10.7;;
68473;SDS011;55461;52.066;5.194;2022-08-21T05:22:53;17.0;;;11.1;;
68473;SDS011;55461;52.066;5.194;2022-08-21T05:26:07;16.0;;;10.8;;
68473;SDS011;55461;52.066;5.194;2022-08-21T05:27:43;15.0;;;10.3;;
68473;SDS011;55461;52.066;5.194;2022-08-21T05:32:35;18.0;;;11.1;;
68473;SDS011;55461;52.066;5.194;2022-08-21T05:34:12;16.11;;;11.1;;
68473;SDS011;55461;52.066;5.194;2022-08-21T05:35:49;15.3;;;10.8;;
68473;SDS011;55461;52.066;5.194;2022-08-21T05:37:27;15.2;;;10.9;;
68473;SDS011;55461;52.066;5.194;2022-08-21T05:40:41;16.4;;;10.7;;
68473;SDS011;55461;52.066;5.194;2022-08-21T05:42:17;16.61;;;10.8;;
68473;SDS011;55461;52.066;5.194;2022-08-21T05:43:53;15.0;;;10.3;;
68473;SDS011;55461;52.066;5.194;2022-08-21T05:47:09;15.4;;;9.81;;
68473;SDS011;55461;52.066;5.194;2022-08-21T05:48:46;16.8;;;10.0;;
68473;SDS011;55461;52.066;5.194;2022-08-21T05:50:23;16.0;;;9.9;;
68473;SDS011;55461;52.066;5.194;2022-08-21T05:53:37;15.8;;;10.4;;
68473;SDS011;55461;52.066;5.194;2022-08-21T05:55:15;16.11;;;9.9;;
68473;SDS011;55461;52.066;5.194;2022-08-21T05:56:51;16.3;;;9.9;;
68473;SDS011;55461;52.066;5.194;2022-08-21T05:58:27;17.0;;;9.71;;
68473;SDS011;55461;52.066;5.194;2022-08-21T06:01:41;14.9;;;9.21;;
68473;SDS011;55461;52.066;5.194;2022-08-21T06:03:19;16.11;;;9.5;;
68473;SDS011;55461;52.066;5.194;2022-08-21T06:05:00;13.2;;;9.1;;
68473;SDS011;55461;52.066;5.194;2022-08-21T06:08:14;14.3;;;8.9;;
68473;SDS011;55461;52.066;5.194;2022-08-21T06:09:51;15.3;;;10.1;;
68473;SDS011;55461;52.066;5.194;2022-08-21T06:11:27;15.3;;;9.1;;
68473;SDS011;55461;52.066;5.194;2022-08-21T06:13:04;13.5;;;8.71;;
68473;SDS011;55461;52.066;5.194;2022-08-21T06:16:18;14.8;;;9.0;;
68473;SDS011;55461;52.066;5.194;2022-08-21T06:17:55;14.6;;;8.71;;
68473;SDS011;55461;52.066;5.194;2022-08-21T06:19:32;14.5;;;8.6;;
68473;SDS011;55461;52.066;5.194;2022-08-21T06:22:46;12.4;;;8.2;;
68473;SDS011;55461;52.066;5.194;2022-08-21T06:24:22;12.6;;;7.8;;
68473;SDS011;55461;52.066;5.194;2022-08-21T06:26:00;12.8;;;8.0;;
68473;SDS011;55461;52.066;5.194;2022-08-21T06:29:16;16.11;;;8.4;;
68473;SDS011;55461;52.066;5.194;2022-08-21T06:30:53;15.6;;;8.81;;
68473;SDS011;55461;52.066;5.194;2022-08-21T06:32:30;13.7;;;7.7;;
68473;SDS011;55461;52.066;5.194;2022-08-21T06:34:07;15.1;;;8.5;;
68473;SDS011;55461;52.066;5.194;2022-08-21T06:37:22;11.5;;;7.4;;
68473;SDS011;55461;52.066;5.194;2022-08-21T06:38:58;12.3;;;7.6;;
68473;SDS011;55461;52.066;5.194;2022-08-21T06:40:34;16.3;;;8.31;;
68473;SDS011;55461;52.066;5.194;2022-08-21T06:43:51;12.3;;;7.4;;
68473;SDS011;55461;52.066;5.194;2022-08-21T06:45:28;13.6;;;7.3;;
68473;SDS011;55461;52.066;5.194;2022-08-21T06:47:04;11.0;;;7.0;;
68473;SDS011;55461;52.066;5.194;2022-08-21T06:48:41;13.3;;;7.3;;
68473;SDS011;55461;52.066;5.194;2022-08-21T06:51:54;11.9;;;7.3;;
68473;SDS011;55461;52.066;5.194;2022-08-21T06:53:32;12.7;;;7.5;;
68473;SDS011;55461;52.066;5.194;2022-08-21T06:55:10;12.3;;;6.8;;
68473;SDS011;55461;52.066;5.194;2022-08-21T06:58:26;16.2;;;7.2;;
68473;SDS011;55461;52.066;5.194;2022-08-21T07:00:04;15.3;;;7.0;;
68473;SDS011;55461;52.066;5.194;2022-08-21T07:01:44;13.8;;;6.9;;
68473;SDS011;55461;52.066;5.194;2022-08-21T07:03:21;15.0;;;7.0;;
68473;SDS011;55461;52.066;5.194;2022-08-21T07:06:38;18.91;;;7.0;;
68473;SDS011;55461;52.066;5.194;2022-08-21T07:08:15;14.0;;;6.6;;
68473;SDS011;55461;52.066;5.194;2022-08-21T07:09:52;16.3;;;7.1;;
68473;SDS011;55461;52.066;5.194;2022-08-21T07:13:05;15.6;;;7.1;;
68473;SDS011;55461;52.066;5.194;2022-08-21T07:14:42;14.6;;;6.9;;
68473;SDS011;55461;52.066;5.194;2022-08-21T07:16:19;13.7;;;6.9;;
68473;SDS011;55461;52.066;5.194;2022-08-21T07:17:57;14.6;;;6.5;;
68473;SDS011;55461;52.066;5.194;2022-08-21T07:21:10;16.11;;;6.9;;
68473;SDS011;55461;52.066;5.194;2022-08-21T07:22:47;13.0;;;6.0;;
68473;SDS011;55461;52.066;5.194;2022-08-21T07:24:23;13.0;;;6.5;;
68473;SDS011;55461;52.066;5.194;2022-08-21T07:27:37;13.3;;;6.0;;
68473;SDS011;55461;52.066;5.194;2022-08-21T07:29:13;11.0;;;6.0;;
68473;SDS011;55461;52.066;5.194;2022-08-21T07:30:50;13.7;;;6.0;;
68473;SDS011;55461;52.066;5.194;2022-08-21T07:32:29;15.4;;;6.2;;
68473;SDS011;55461;52.066;5.194;2022-08-21T07:35:44;14.6;;;6.4;;
68473;SDS011;55461;52.066;5.194;2022-08-21T07:37:21;11.9;;;6.2;;
68473;SDS011;55461;52.066;5.194;2022-08-21T07:38:58;13.9;;;6.2;;
68473;SDS011;55461;52.066;5.194;2022-08-21T07:43:47;11.2;;;5.6;;
68473;SDS011;55461;52.066;5.194;2022-08-21T07:45:26;15.6;;;6.7;;
68473;SDS011;55461;52.066;5.194;2022-08-21T07:48:40;12.9;;;5.9;;
68473;SDS011;55461;52.066;5.194;2022-08-21T07:50:17;15.1;;;6.2;;
68473;SDS011;55461;52.066;5.194;2022-08-21T07:51:54;12.2;;;6.1;;
68473;SDS011;55461;52.066;5.194;2022-08-21T07:53:31;12.1;;;5.8;;
68473;SDS011;55461;52.066;5.194;2022-08-21T07:56:47;13.1;;;6.3;;
68473;SDS011;55461;52.066;5.194;2022-08-21T07:58:23;13.3;;;5.7;;
68473;SDS011;55461;52.066;5.194;2022-08-21T08:00:00;13.6;;;6.4;;
68473;SDS011;55461;52.066;5.194;2022-08-21T08:03:12;11.6;;;6.1;;
68473;SDS011;55461;52.066;5.194;2022-08-21T08:04:50;12.9;;;6.0;;
68473;SDS011;55461;52.066;5.194;2022-08-21T08:06:27;14.9;;;6.3;;
68473;SDS011;55461;52.066;5.194;2022-08-21T08:08:04;16.2;;;6.2;;
68473;SDS011;55461;52.066;5.194;2022-08-21T08:11:17;14.2;;;6.6;;
68473;SDS011;55461;52.066;5.194;2022-08-21T08:12:55;13.9;;;6.4;;
68473;SDS011;55461;52.066;5.194;2022-08-21T08:14:32;12.2;;;5.8;;
68473;SDS011;55461;52.066;5.194;2022-08-21T08:17:47;14.6;;;6.3;;
68473;SDS011;55461;52.066;5.194;2022-08-21T08:19:24;15.7;;;6.7;;
68473;SDS011;55461;52.066;5.194;2022-08-21T08:21:01;11.0;;;5.7;;
68473;SDS011;55461;52.066;5.194;2022-08-21T08:24:16;12.1;;;6.0;;
68473;SDS011;55461;52.066;5.194;2022-08-21T08:25:52;12.0;;;5.9;;
68473;SDS011;55461;52.066;5.194;2022-08-21T08:27:30;12.3;;;6.0;;
68473;SDS011;55461;52.066;5.194;2022-08-21T08:29:08;13.0;;;5.6;;
68473;SDS011;55461;52.066;5.194;2022-08-21T08:32:21;11.1;;;5.6;;
68473;SDS011;55461;52.066;5.194;2022-08-21T08:33:59;11.8;;;5.4;;
68473;SDS011;55461;52.066;5.194;2022-08-21T08:35:36;12.2;;;5.7;;
68473;SDS011;55461;52.066;5.194;2022-08-21T08:38:49;12.1;;;5.7;;
68473;SDS011;55461;52.066;5.194;2022-08-21T08:40:29;14.3;;;5.7;;
68473;SDS011;55461;52.066;5.194;2022-08-21T08:42:21;13.6;;;5.7;;
68473;SDS011;55461;52.066;5.194;2022-08-21T08:44:07;13.1;;;6.3;;
68473;SDS011;55461;52.066;5.194;2022-08-21T08:45:46;14.6;;;6.2;;
68473;SDS011;55461;52.066;5.194;2022-08-21T08:49:07;13.3;;;5.8;;
68473;SDS011;55461;52.066;5.194;2022-08-21T08:50:49;12.0;;;5.0;;
68473;SDS011;55461;52.066;5.194;2022-08-21T08:54:15;10.1;;;5.4;;
68473;SDS011;55461;52.066;5.194;2022-08-21T08:57:37;14.2;;;6.3;;
68473;SDS011;55461;52.066;5.194;2022-08-21T08:59:17;10.6;;;5.0;;
68473;SDS011;55461;52.066;5.194;2022-08-21T09:01:05;15.1;;;5.4;;
68473;SDS011;55461;52.066;5.194;2022-08-21T09:02:52;13.2;;;5.8;;
68473;SDS011;55461;52.066;5.194;2022-08-21T09:06:10;11.7;;;5.11;;
68473;SDS011;55461;52.066;5.194;2022-08-21T09:08:13;10.0;;;4.8;;
68473;SDS011;55461;52.066;5.194;2022-08-21T09:10:10;12.7;;;5.3;;
68473;SDS011;55461;52.066;5.194;2022-08-21T09:11:56;13.1;;;5.5;;
68473;SDS011;55461;52.066;5.194;2022-08-21T09:13:43;8.81;;;4.5;;
68473;SDS011;55461;52.066;5.194;2022-08-21T09:15:29;11.8;;;5.6;;
68473;SDS011;55461;52.066;5.194;2022-08-21T09:17:15;10.5;;;4.7;;
68473;SDS011;55461;52.066;5.194;2022-08-21T09:19:19;10.0;;;4.2;;
68473;SDS011;55461;52.066;5.194;2022-08-21T09:23:04;12.1;;;4.8;;
68473;SDS011;55461;52.066;5.194;2022-08-21T09:25:01;11.6;;;4.61;;
68473;SDS011;55461;52.066;5.194;2022-08-21T09:26:45;12.5;;;4.5;;
68473;SDS011;55461;52.066;5.194;2022-08-21T09:28:33;7.5;;;4.1;;
68473;SDS011;55461;52.066;5.194;2022-08-21T09:30:12;10.9;;;4.1;;
68473;SDS011;55461;52.066;5.194;2022-08-21T09:31:49;9.31;;;3.6;;
68473;SDS011;55461;52.066;5.194;2022-08-21T09:35:07;12.3;;;4.2;;
68473;SDS011;55461;52.066;5.194;2022-08-21T09:36:47;11.2;;;3.9;;
68473;SDS011;55461;52.066;5.194;2022-08-21T09:38:28;7.0;;;3.3;;
68473;SDS011;55461;52.066;5.194;2022-08-21T09:40:15;11.0;;;4.1;;
68473;SDS011;55461;52.066;5.194;2022-08-21T09:43:51;9.1;;;3.7;;
68473;SDS011;55461;52.066;5.194;2022-08-21T09:45:30;8.6;;;3.4;;
68473;SDS011;55461;52.066;5.194;2022-08-21T09:47:08;9.5;;;3.5;;
68473;SDS011;55461;52.066;5.194;2022-08-21T09:48:47;10.21;;;3.3;;
68473;SDS011;55461;52.066;5.194;2022-08-21T09:52:11;8.6;;;3.4;;
68473;SDS011;55461;52.066;5.194;2022-08-21T09:53:55;10.1;;;3.3;;
68473;SDS011;55461;52.066;5.194;2022-08-21T09:58:46;8.4;;;3.3;;
68473;SDS011;55461;52.066;5.194;2022-08-21T10:00:26;11.2;;;3.2;;
68473;SDS011;55461;52.066;5.194;2022-08-21T10:02:21;9.9;;;3.3;;
68473;SDS011;55461;52.066;5.194;2022-08-21T10:04:03;10.21;;;3.3;;
68473;SDS011;55461;52.066;5.194;2022-08-21T10:05:51;11.7;;;3.5;;
68473;SDS011;55461;52.066;5.194;2022-08-21T10:07:31;7.1;;;2.6;;
68473;SDS011;55461;52.066;5.194;2022-08-21T10:10:57;8.5;;;3.0;;
68473;SDS011;55461;52.066;5.194;2022-08-21T10:12:42;8.9;;;2.8;;
68473;SDS011;55461;52.066;5.194;2022-08-21T10:14:35;6.7;;;2.5;;
68473;SDS011;55461;52.066;5.194;2022-08-21T10:16:36;7.8;;;2.6;;
68473;SDS011;55461;52.066;5.194;2022-08-21T10:18:30;9.81;;;3.1;;
68473;SDS011;55461;52.066;5.194;2022-08-21T10:20:17;9.5;;;3.1;;
68473;SDS011;55461;52.066;5.194;2022-08-21T10:22:01;9.31;;;2.5;;
68473;SDS011;55461;52.066;5.194;2022-08-21T10:25:38;6.2;;;2.1;;
68473;SDS011;55461;52.066;5.194;2022-08-21T10:27:26;6.8;;;1.8;;
68473;SDS011;55461;52.066;5.194;2022-08-21T10:29:16;8.1;;;2.21;;
68473;SDS011;55461;52.066;5.194;2022-08-21T10:31:21;9.5;;;2.6;;
68473;SDS011;55461;52.066;5.194;2022-08-21T10:33:10;8.81;;;2.6;;
68473;SDS011;55461;52.066;5.194;2022-08-21T10:35:02;8.81;;;2.21;;
68473;SDS011;55461;52.066;5.194;2022-08-21T10:36:48;7.4;;;2.4;;
68473;SDS011;55461;52.066;5.194;2022-08-21T10:38:53;8.71;;;2.5;;
68473;SDS011;55461;52.066;5.194;2022-08-21T10:42:24;8.9;;;2.4;;
68473;SDS011;55461;52.066;5.194;2022-08-21T10:44:13;8.2;;;2.5;;
68473;SDS011;55461;52.066;5.194;2022-08-21T10:46:00;6.9;;;2.1;;
68473;SDS011;55461;52.066;5.194;2022-08-21T10:47:54;9.71;;;2.5;;
68473;SDS011;55461;52.066;5.194;2022-08-21T10:49:39;5.4;;;1.9;;
68473;SDS011;55461;52.066;5.194;2022-08-21T10:51:23;7.9;;;2.4;;
68473;SDS011;55461;52.066;5.194;2022-08-21T10:55:06;7.5;;;2.31;;
68473;SDS011;55461;52.066;5.194;2022-08-21T10:56:48;7.5;;;2.0;;
68473;SDS011;55461;52.066;5.194;2022-08-21T10:58:34;7.0;;;2.1;;
68473;SDS011;55461;52.066;5.194;2022-08-21T11:00:17;8.9;;;2.1;;
68473;SDS011;55461;52.066;5.194;2022-08-21T11:01:59;4.91;;;1.8;;
68473;SDS011;55461;52.066;5.194;2022-08-21T11:05:28;7.7;;;2.1;;
68473;SDS011;55461;52.066;5.194;2022-08-21T11:07:10;6.3;;;2.1;;
68473;SDS011;55461;52.066;5.194;2022-08-21T11:08:58;7.7;;;2.0;;
68473;SDS011;55461;52.066;5.194;2022-08-21T11:10:47;5.4;;;1.9;;
68473;SDS011;55461;52.066;5.194;2022-08-21T11:12:31;8.31;;;1.9;;
68473;SDS011;55461;52.066;5.194;2022-08-21T11:14:20;5.5;;;2.0;;
68473;SDS011;55461;52.066;5.194;2022-08-21T11:17:58;6.4;;;2.0;;
68473;SDS011;55461;52.066;5.194;2022-08-21T11:19:57;6.6;;;2.1;;
68473;SDS011;55461;52.066;5.194;2022-08-21T11:21:46;6.3;;;2.0;;
68473;SDS011;55461;52.066;5.194;2022-08-21T11:23:33;6.3;;;2.0;;
68473;SDS011;55461;52.066;5.194;2022-08-21T11:25:19;5.2;;;2.0;;
68473;SDS011;55461;52.066;5.194;2022-08-21T11:27:04;5.6;;;2.21;;
68473;SDS011;55461;52.066;5.194;2022-08-21T11:28:55;5.2;;;2.31;;
68473;SDS011;55461;52.066;5.194;2022-08-21T11:32:46;5.0;;;2.21;;
68473;SDS011;55461;52.066;5.194;2022-08-21T11:34:45;5.3;;;2.5;;
68473;SDS011;55461;52.066;5.194;2022-08-21T11:36:33;4.91;;;2.31;;
68473;SDS011;55461;52.066;5.194;2022-08-21T11:38:22;5.8;;;2.21;;
68473;SDS011;55461;52.066;5.194;2022-08-21T11:40:12;4.91;;;2.21;;
68473;SDS011;55461;52.066;5.194;2022-08-21T11:42:01;4.8;;;1.9;;
68473;SDS011;55461;52.066;5.194;2022-08-21T11:43:50;5.3;;;2.21;;
68473;SDS011;55461;52.066;5.194;2022-08-21T11:47:29;6.0;;;1.9;;
68473;SDS011;55461;52.066;5.194;2022-08-21T11:49:30;7.1;;;2.1;;
68473;SDS011;55461;52.066;5.194;2022-08-21T11:51:25;6.9;;;2.21;;
68473;SDS011;55461;52.066;5.194;2022-08-21T11:53:17;4.91;;;2.1;;
68473;SDS011;55461;52.066;5.194;2022-08-21T11:55:07;7.2;;;2.4;;
68473;SDS011;55461;52.066;5.194;2022-08-21T11:56:52;7.8;;;2.5;;
68473;SDS011;55461;52.066;5.194;2022-08-21T11:58:35;6.1;;;2.31;;
68473;SDS011;55461;52.066;5.194;2022-08-21T12:00:16;6.3;;;2.21;;
68473;SDS011;55461;52.066;5.194;2022-08-21T12:03:37;5.11;;;2.31;;
68473;SDS011;55461;52.066;5.194;2022-08-21T12:05:27;6.0;;;1.9;;
68473;SDS011;55461;52.066;5.194;2022-08-21T12:07:10;7.4;;;2.21;;
68473;SDS011;55461;52.066;5.194;2022-08-21T12:08:56;6.3;;;2.0;;
68473;SDS011;55461;52.066;5.194;2022-08-21T12:12:22;7.0;;;2.21;;
68473;SDS011;55461;52.066;5.194;2022-08-21T12:14:12;7.8;;;2.1;;
68473;SDS011;55461;52.066;5.194;2022-08-21T12:15:52;6.6;;;2.0;;
68473;SDS011;55461;52.066;5.194;2022-08-21T12:17:34;5.3;;;1.8;;
68473;SDS011;55461;52.066;5.194;2022-08-21T12:19:27;4.91;;;1.9;;
68473;SDS011;55461;52.066;5.194;2022-08-21T12:23:04;4.8;;;1.6;;
68473;SDS011;55461;52.066;5.194;2022-08-21T12:25:04;4.1;;;1.8;;
68473;SDS011;55461;52.066;5.194;2022-08-21T12:26:48;6.0;;;1.9;;
68473;SDS011;55461;52.066;5.194;2022-08-21T12:28:28;5.9;;;1.9;;
68473;SDS011;55461;52.066;5.194;2022-08-21T12:30:19;5.0;;;1.9;;
68473;SDS011;55461;52.066;5.194;2022-08-21T12:32:20;7.5;;;2.1;;
68473;SDS011;55461;52.066;5.194;2022-08-21T12:34:01;5.8;;;2.1;;
68473;SDS011;55461;52.066;5.194;2022-08-21T12:37:26;7.7;;;2.31;;
68473;SDS011;55461;52.066;5.194;2022-08-21T12:39:21;6.8;;;2.0;;
68473;SDS011;55461;52.066;5.194;2022-08-21T12:41:05;6.0;;;2.0;;
68473;SDS011;55461;52.066;5.194;2022-08-21T12:42:50;5.3;;;1.6;;
68473;SDS011;55461;52.066;5.194;2022-08-21T12:44:32;7.6;;;2.0;;
68473;SDS011;55461;52.066;5.194;2022-08-21T12:47:55;6.8;;;1.9;;
68473;SDS011;55461;52.066;5.194;2022-08-21T12:49:39;5.4;;;1.9;;
68473;SDS011;55461;52.066;5.194;2022-08-21T12:51:28;6.1;;;1.9;;
68473;SDS011;55461;52.066;5.194;2022-08-21T12:53:12;3.6;;;1.5;;
68473;SDS011;55461;52.066;5.194;2022-08-21T12:55:00;6.0;;;1.7;;